Time;durP1;ratioP1;P1;durP2;ratioP2;P2;SDS_P1;SDS_P2;PMS_P1;PMS_P2;Temp;Humidity;BMP_temperature;BMP_pressure;BME280_temperature;BME280_humidity;BME280_pressure;Samples;Min_cycle;Max_cycle;Signal;HPM_P1;HPM_P2
2022/05/10 00:02:00;;;;;;;18.20;16.50;;;10.50;99.90;;;;;;5101485;28;20204;-85
2022/05/10 00:04:27;;;;;;;18.80;16.90;;;10.50;99.90;;;;;;5099308;28;20231;-85
2022/05/10 00:06:55;;;;;;;18.30;16.50;;;10.60;99.90;;;;;;5101801;28;20269;-84
2022/05/10 00:09:27;;;;;;;19.10;17.27;;;10.60;99.90;;;;;;5109514;28;20220;-84
2022/05/10 00:11:54;;;;;;;21.93;19.80;;;10.60;99.90;;;;;;5117981;28;20184;-86
2022/05/10 00:14:21;;;;;;;21.40;19.17;;;10.40;99.90;;;;;;5099957;28;20220;-85
2022/05/10 00:16:51;;;;;;;20.43;18.50;;;10.50;99.90;;;;;;5119654;28;20200;-84
2022/05/10 00:19:20;;;;;;;20.13;18.23;;;10.50;99.90;;;;;;5114542;28;20192;-83
2022/05/10 00:21:48;;;;;;;26.33;19.77;;;10.40;99.90;;;;;;5121044;28;20188;-85
2022/05/10 00:24:15;;;;;;;22.13;19.53;;;10.40;99.90;;;;;;5120908;28;20202;-86
2022/05/10 00:26:42;;;;;;;23.20;18.90;;;10.30;99.90;;;;;;5108693;28;20192;-86
2022/05/10 00:29:08;;;;;;;22.23;19.87;;;10.30;99.90;;;;;;5102835;28;20277;-85
2022/05/10 00:31:36;;;;;;;22.00;19.70;;;10.40;99.90;;;;;;5097376;28;20196;-85
2022/05/10 00:34:04;;;;;;;21.77;19.50;;;10.60;99.90;;;;;;5096333;28;20192;-85
2022/05/10 00:36:32;;;;;;;19.67;17.80;;;10.70;99.90;;;;;;5096277;28;20222;-85
2022/05/10 00:39:00;;;;;;;22.43;20.10;;;10.70;99.90;;;;;;5096123;28;20647;-85
2022/05/10 00:41:32;;;;;;;19.80;17.80;;;10.70;99.90;;;;;;5096018;28;20196;-86
2022/05/10 00:44:05;;;;;;;19.97;18.07;;;10.80;99.90;;;;;;5096189;28;20200;-86
2022/05/10 00:46:36;;;;;;;21.17;19.03;;;10.80;99.90;;;;;;5095885;28;20541;-85
2022/05/10 00:49:09;;;;;;;19.90;17.97;;;10.70;99.90;;;;;;5095417;28;20301;-85
2022/05/10 00:51:49;;;;;;;20.63;18.83;;;10.60;99.90;;;;;;5095795;28;20224;-85
2022/05/10 00:54:26;;;;;;;20.27;18.17;;;10.60;99.90;;;;;;5097372;28;20253;-85
2022/05/10 00:57:10;;;;;;;20.53;18.43;;;10.50;99.90;;;;;;5100850;28;20200;-85
2022/05/10 00:59:48;;;;;;;21.77;19.67;;;10.50;99.90;;;;;;5095660;28;20271;-85
2022/05/10 01:02:26;;;;;;;21.70;19.43;;;10.40;99.90;;;;;;5096294;28;20559;-85
2022/05/10 01:04:57;;;;;;;20.33;18.00;;;10.40;99.90;;;;;;5095777;28;20250;-85
2022/05/10 01:07:30;;;;;;;19.73;17.70;;;10.50;99.90;;;;;;5095688;28;20204;-86
2022/05/10 01:10:03;;;;;;;19.53;17.40;;;10.50;99.90;;;;;;5095838;28;20621;-85
2022/05/10 01:12:34;;;;;;;19.30;17.50;;;10.50;99.90;;;;;;5095698;28;20568;-85
2022/05/10 01:15:03;;;;;;;18.67;16.77;;;10.40;99.90;;;;;;5095716;28;20200;-86
2022/05/10 01:17:30;;;;;;;19.57;17.60;;;10.10;99.90;;;;;;5095555;28;20242;-86
2022/05/10 01:19:57;;;;;;;20.37;18.27;;;10.20;99.90;;;;;;5095483;28;20200;-86
2022/05/10 01:22:43;;;;;;;19.27;17.53;;;10.20;99.90;;;;;;5096221;28;20208;-86
2022/05/10 01:25:28;;;;;;;19.60;17.70;;;10.20;99.90;;;;;;5095663;28;20250;-86
2022/05/10 01:28:19;;;;;;;19.77;17.90;;;10.30;99.90;;;;;;5095581;28;20241;-85
2022/05/10 01:30:46;;;;;;;20.43;18.47;;;10.10;99.90;;;;;;5096256;28;20200;-86
2022/05/10 01:33:30;;;;;;;22.83;19.57;;;10.00;99.90;;;;;;5096708;28;20196;-86
2022/05/10 01:36:13;;;;;;;45.87;27.47;;;10.00;99.90;;;;;;5111631;28;20189;-86
2022/05/10 01:38:45;;;;;;;39.80;27.80;;;10.10;99.90;;;;;;5117732;28;20755;-86
2022/05/10 01:41:21;;;;;;;34.87;25.10;;;10.20;99.90;;;;;;5120293;28;20219;-85
2022/05/10 01:43:54;;;;;;;27.27;22.63;;;10.10;99.90;;;;;;5118840;28;20184;-81
2022/05/10 01:46:26;;;;;;;23.17;20.67;;;10.20;99.90;;;;;;5120103;28;20282;-85
2022/05/10 01:49:00;;;;;;;23.20;20.90;;;10.20;99.90;;;;;;5111345;28;20228;-86
2022/05/10 01:51:34;;;;;;;24.00;21.33;;;10.30;99.90;;;;;;5097945;28;20595;-87
2022/05/10 01:54:01;;;;;;;26.13;21.97;;;10.10;99.90;;;;;;5095867;28;20253;-86
2022/05/10 01:56:30;;;;;;;25.50;21.87;;;10.10;99.90;;;;;;5094549;28;20419;-85
2022/05/10 01:59:00;;;;;;;30.33;24.73;;;10.10;99.90;;;;;;5094324;28;20204;-85
2022/05/10 02:01:32;;;;;;;26.67;23.90;;;10.10;99.90;;;;;;5094441;28;20192;-86
2022/05/10 02:04:04;;;;;;;25.73;23.13;;;10.10;99.90;;;;;;5094486;28;20253;-85
2022/05/10 02:06:36;;;;;;;26.20;23.60;;;10.10;99.90;;;;;;5094344;28;20200;-85
2022/05/10 02:09:10;;;;;;;25.47;22.93;;;10.10;99.90;;;;;;5095054;28;20702;-86
2022/05/10 02:11:41;;;;;;;25.63;22.90;;;10.00;99.90;;;;;;5094940;28;20200;-85
2022/05/10 02:14:15;;;;;;;24.50;22.03;;;9.90;99.90;;;;;;5094696;28;20200;-85
2022/05/10 02:16:46;;;;;;;26.70;23.40;;;9.90;99.90;;;;;;5094605;28;20232;-86
2022/05/10 02:19:23;;;;;;;26.60;23.80;;;9.90;99.90;;;;;;5094357;28;20610;-86
2022/05/10 02:21:54;;;;;;;26.20;23.47;;;9.80;99.90;;;;;;5094286;28;20667;-85
2022/05/10 02:24:26;;;;;;;26.67;23.70;;;9.70;99.90;;;;;;5094256;28;20246;-86
2022/05/10 02:26:56;;;;;;;25.87;23.37;;;9.70;99.90;;;;;;5093991;28;20192;-86
2022/05/10 02:29:31;;;;;;;27.73;23.70;;;9.80;99.90;;;;;;5094905;28;20224;-85
2022/05/10 02:34:48;;;;;;;25.47;22.77;;;9.80;99.90;;;;;;5094282;28;20203;-86
2022/05/10 02:37:15;;;;;;;25.17;22.57;;;9.80;99.90;;;;;;5094102;28;20226;-86
2022/05/10 02:39:42;;;;;;;25.17;22.57;;;9.80;99.90;;;;;;5094090;28;20196;-86
2022/05/10 02:42:14;;;;;;;24.87;22.27;;;9.60;99.90;;;;;;5093727;28;20204;-87
2022/05/10 02:44:42;;;;;;;25.73;21.90;;;9.60;99.90;;;;;;5094229;28;20196;-87
2022/05/10 02:47:11;;;;;;;27.57;23.60;;;9.50;99.90;;;;;;5094057;28;20200;-86
2022/05/10 02:49:39;;;;;;;24.80;22.20;;;9.50;99.90;;;;;;5093771;28;20224;-86
2022/05/10 02:52:06;;;;;;;25.27;22.73;;;9.50;99.90;;;;;;5094783;28;20224;-87
2022/05/10 02:54:33;;;;;;;26.40;23.10;;;9.50;99.90;;;;;;5093572;28;20196;-87
2022/05/10 02:57:03;;;;;;;25.47;22.97;;;9.50;99.90;;;;;;5093967;28;20533;-87
2022/05/10 02:59:37;;;;;;;25.53;23.10;;;9.60;99.90;;;;;;5093635;28;20231;-85
2022/05/10 03:02:12;;;;;;;27.10;24.40;;;9.60;99.90;;;;;;5093906;28;20192;-87
2022/05/10 03:04:41;;;;;;;28.33;24.57;;;9.50;99.90;;;;;;5093781;28;20613;-87
2022/05/10 03:07:10;;;;;;;28.80;25.80;;;9.50;99.90;;;;;;5093712;28;20208;-87
2022/05/10 03:09:37;;;;;;;26.70;24.00;;;9.50;99.90;;;;;;5093509;28;20224;-87
2022/05/10 03:12:05;;;;;;;30.23;24.63;;;9.50;99.90;;;;;;5096718;28;20253;-86
2022/05/10 03:14:32;;;;;;;30.53;27.23;;;9.40;99.90;;;;;;5097534;28;20219;-87
2022/05/10 03:16:59;;;;;;;28.30;25.37;;;9.40;99.90;;;;;;5097757;28;20196;-86
2022/05/10 03:19:27;;;;;;;28.70;25.70;;;9.40;99.90;;;;;;5097361;28;20712;-87
2022/05/10 03:21:54;;;;;;;28.50;24.87;;;9.40;99.90;;;;;;5097409;28;20253;-86
2022/05/10 03:24:20;;;;;;;28.20;25.20;;;9.30;99.90;;;;;;5079719;28;20200;-86
2022/05/10 03:26:49;;;;;;;28.53;25.63;;;9.30;99.90;;;;;;5098207;28;20204;-87
2022/05/10 03:29:16;;;;;;;27.60;24.83;;;9.30;99.90;;;;;;5098798;28;20217;-87
2022/05/10 03:31:44;;;;;;;27.00;24.30;;;9.30;99.90;;;;;;5100983;28;20196;-87
2022/05/10 03:36:57;;;;;;;27.17;24.27;;;9.20;99.90;;;;;;5122213;28;20206;-86
2022/05/10 03:39:24;;;;;;;24.73;22.23;;;9.30;99.90;;;;;;5120078;28;20196;-87
2022/05/10 03:41:51;;;;;;;25.00;22.53;;;9.30;99.90;;;;;;5114660;28;20206;-86
2022/05/10 03:44:17;;;;;;;26.30;23.63;;;9.30;99.90;;;;;;5120774;28;20212;-86
2022/05/10 03:46:45;;;;;;;25.40;21.90;;;9.30;99.90;;;;;;5122440;28;20185;-86
2022/05/10 03:49:12;;;;;;;25.23;22.77;;;9.40;99.90;;;;;;5117980;28;20220;-87
2022/05/10 03:51:38;;;;;;;25.20;22.37;;;9.40;99.90;;;;;;5115160;28;20212;-87
2022/05/10 03:54:07;;;;;;;24.60;22.07;;;9.20;99.90;;;;;;5110531;28;20204;-87
2022/05/10 03:56:34;;;;;;;24.57;21.97;;;9.10;99.90;;;;;;5098473;28;20606;-87
2022/05/10 03:59:01;;;;;;;23.97;21.67;;;9.10;99.90;;;;;;5097223;28;20206;-85
2022/05/10 04:01:28;;;;;;;24.23;21.87;;;9.10;99.90;;;;;;5100237;28;20805;-87
2022/05/10 04:03:55;;;;;;;24.63;22.10;;;9.10;99.90;;;;;;5096962;28;20606;-87
2022/05/10 04:06:22;;;;;;;26.80;24.10;;;9.20;99.90;;;;;;5097122;28;20192;-86
2022/05/10 04:08:48;;;;;;;25.33;22.83;;;9.20;99.90;;;;;;5096903;28;20219;-88
2022/05/10 04:11:16;;;;;;;24.63;22.33;;;9.10;99.90;;;;;;5097605;28;20717;-86
2022/05/10 04:13:44;;;;;;;25.43;23.07;;;9.00;99.90;;;;;;5097071;28;20204;-87
2022/05/10 04:16:11;;;;;;;26.23;23.40;;;9.10;99.90;;;;;;5098455;28;20207;-88
2022/05/10 04:18:38;;;;;;;25.67;23.00;;;9.20;99.90;;;;;;5098530;28;20253;-87
2022/05/10 04:21:05;;;;;;;25.90;23.40;;;9.30;99.90;;;;;;5096900;28;20208;-87
2022/05/10 04:23:32;;;;;;;27.10;24.03;;;9.40;99.90;;;;;;5096951;28;20636;-87
2022/05/10 04:26:03;;;;;;;26.37;23.43;;;9.50;99.90;;;;;;5097078;28;20200;-87
2022/05/10 04:28:31;;;;;;;27.70;24.90;;;9.50;99.90;;;;;;5096986;28;20200;-88
2022/05/10 04:30:58;;;;;;;27.00;24.27;;;9.60;99.90;;;;;;5098797;28;20224;-87
2022/05/10 04:33:25;;;;;;;27.37;24.40;;;9.70;99.90;;;;;;5097303;28;20326;-87
2022/05/10 04:35:52;;;;;;;27.37;24.53;;;9.80;99.90;;;;;;5096896;28;20250;-87
2022/05/10 04:38:18;;;;;;;29.20;23.50;;;9.80;99.90;;;;;;5099490;28;20192;-87
2022/05/10 04:43:33;;;;;;;24.70;22.03;;;9.90;99.90;;;;;;5103350;28;20561;-87
2022/05/10 04:45:59;;;;;;;24.43;21.90;;;9.90;99.90;;;;;;5102285;28;20200;-87
2022/05/10 04:48:26;;;;;;;23.97;21.47;;;10.00;99.90;;;;;;5106399;28;20196;-87
2022/05/10 04:50:53;;;;;;;23.50;21.00;;;10.10;99.90;;;;;;5117038;28;20242;-87
2022/05/10 04:53:19;;;;;;;22.10;19.90;;;10.10;99.90;;;;;;5114643;28;20220;-87
2022/05/10 04:55:48;;;;;;;24.50;22.03;;;10.20;99.90;;;;;;5116557;28;20192;-87
2022/05/10 04:58:15;;;;;;;23.60;20.97;;;10.20;99.90;;;;;;5116926;28;20205;-87
2022/05/10 05:00:43;;;;;;;24.80;22.20;;;10.40;99.90;;;;;;5116003;28;20230;-87
2022/05/10 05:03:10;;;;;;;23.03;20.73;;;10.50;99.90;;;;;;5104627;28;20622;-87
2022/05/10 05:05:37;;;;;;;21.80;19.57;;;10.60;99.90;;;;;;5110316;28;20212;-86
2022/05/10 05:08:04;;;;;;;20.10;18.00;;;10.70;99.90;;;;;;5112643;28;20224;-87
2022/05/10 05:10:31;;;;;;;21.77;19.43;;;10.80;99.90;;;;;;5106616;28;20223;-87
2022/05/10 05:12:58;;;;;;;20.67;18.57;;;10.90;99.90;;;;;;5096435;28;20598;-86
2022/05/10 05:15:25;;;;;;;18.60;16.87;;;11.00;99.90;;;;;;5096295;28;20648;-87
2022/05/10 05:17:53;;;;;;;20.43;18.40;;;11.00;99.90;;;;;;5096293;28;20273;-86
2022/05/10 05:20:19;;;;;;;20.23;17.73;;;11.10;99.90;;;;;;5095084;28;20200;-82
2022/05/10 05:22:46;;;;;;;20.73;18.10;;;11.20;99.90;;;;;;5094492;28;20196;-81
2022/05/10 05:25:13;;;;;;;19.50;17.60;;;11.40;99.90;;;;;;5094810;28;20225;-81
2022/05/10 05:27:40;;;;;;;21.33;19.03;;;11.60;99.90;;;;;;5094717;28;20205;-81
2022/05/10 05:30:09;;;;;;;20.03;17.90;;;11.70;99.90;;;;;;5094612;28;20220;-81
2022/05/10 05:32:36;;;;;;;20.30;18.30;;;11.80;99.90;;;;;;5094439;28;20192;-80
2022/05/10 05:35:05;;;;;;;21.43;19.17;;;11.90;99.90;;;;;;5094763;28;20196;-81
2022/05/10 05:37:35;;;;;;;25.27;18.57;;;12.10;99.90;;;;;;5094821;28;20196;-81
2022/05/10 05:40:03;;;;;;;20.60;18.70;;;12.20;99.90;;;;;;5094814;28;20307;-81
2022/05/10 05:42:31;;;;;;;21.20;19.00;;;12.30;99.90;;;;;;5094866;28;20218;-81
2022/05/10 05:44:58;;;;;;;19.67;17.83;;;12.50;99.90;;;;;;5095092;28;20200;-83
2022/05/10 05:47:24;;;;;;;21.03;18.93;;;12.60;99.90;;;;;;5076608;28;20738;-81
2022/05/10 05:49:51;;;;;;;22.63;20.23;;;12.70;99.90;;;;;;5094607;28;20280;-83
2022/05/10 05:52:21;;;;;;;23.13;19.03;;;12.90;99.90;;;;;;5094392;28;20278;-82
2022/05/10 05:54:49;;;;;;;24.13;18.20;;;13.00;99.90;;;;;;5094756;28;20823;-82
2022/05/10 05:57:16;;;;;;;21.90;19.70;;;13.20;99.90;;;;;;5094354;28;20196;-82
2022/05/10 05:59:43;;;;;;;29.97;22.60;;;13.40;99.90;;;;;;5094428;28;20230;-82
2022/05/10 06:02:12;;;;;;;23.83;20.77;;;13.50;99.90;;;;;;5094244;28;20205;-82
2022/05/10 06:04:39;;;;;;;23.07;20.67;;;13.70;99.90;;;;;;5094291;28;20200;-82
2022/05/10 06:07:06;;;;;;;23.30;20.57;;;13.90;99.90;;;;;;5093834;28;20196;-82
2022/05/10 06:09:34;;;;;;;22.00;19.80;;;13.90;99.90;;;;;;5094058;28;20196;-82
2022/05/10 06:12:02;;;;;;;21.83;19.53;;;14.10;99.90;;;;;;5093938;28;20196;-82
2022/05/10 06:14:29;;;;;;;22.83;20.40;;;14.20;99.90;;;;;;5094090;28;20197;-81
2022/05/10 06:16:57;;;;;;;21.63;19.53;;;14.30;99.90;;;;;;5093875;28;20756;-81
2022/05/10 06:19:24;;;;;;;20.40;18.50;;;14.50;99.90;;;;;;5093867;28;20192;-81
2022/05/10 06:21:51;;;;;;;20.70;17.83;;;14.70;99.90;;;;;;5094334;28;20200;-82
2022/05/10 06:24:20;;;;;;;19.67;17.40;;;14.90;99.90;;;;;;5094080;28;20196;-81
2022/05/10 06:26:48;;;;;;;17.67;15.97;;;15.00;99.90;;;;;;5093750;28;20193;-81
2022/05/10 06:29:15;;;;;;;18.33;16.30;;;15.20;99.90;;;;;;5093539;28;20265;-81
2022/05/10 06:31:42;;;;;;;17.48;15.68;;;15.30;99.90;;;;;;5093550;28;20273;-82
2022/05/10 06:34:09;;;;;;;22.20;16.70;;;15.50;99.90;;;;;;5093798;28;20222;-81
2022/05/10 06:36:36;;;;;;;18.80;16.87;;;15.60;99.90;;;;;;5093753;28;20196;-81
2022/05/10 06:39:03;;;;;;;17.70;16.05;;;15.70;99.90;;;;;;5093626;28;20200;-82
2022/05/10 06:41:31;;;;;;;18.27;15.83;;;15.80;99.90;;;;;;5093572;28;20196;-81
2022/05/10 06:43:59;;;;;;;18.70;16.50;;;15.90;99.90;;;;;;5093550;28;20258;-81
2022/05/10 06:46:27;;;;;;;18.33;15.45;;;16.00;99.90;;;;;;5095051;28;20223;-80
2022/05/10 06:48:54;;;;;;;17.65;16.05;;;16.10;99.90;;;;;;5093981;28;20196;-81
2022/05/10 06:51:23;;;;;;;17.83;15.57;;;16.30;99.90;;;;;;5094313;28;20278;-81
2022/05/10 06:53:50;;;;;;;16.45;14.73;;;16.40;99.90;;;;;;5094160;28;20242;-81
2022/05/10 06:56:18;;;;;;;17.55;15.75;;;16.50;99.90;;;;;;5093343;28;20196;-81
2022/05/10 06:58:45;;;;;;;16.58;14.98;;;16.60;99.90;;;;;;5093146;28;20192;-81
2022/05/10 07:01:13;;;;;;;17.25;15.02;;;16.80;99.90;;;;;;5093592;28;20201;-81
2022/05/10 07:03:42;;;;;;;17.80;15.98;;;16.90;99.90;;;;;;5102129;28;20655;-80
2022/05/10 07:06:11;;;;;;;17.75;15.85;;;17.10;99.90;;;;;;5112665;28;20181;-81
2022/05/10 07:08:38;;;;;;;18.08;15.30;;;17.10;99.90;;;;;;5113030;28;20204;-80
2022/05/10 07:11:06;;;;;;;18.40;14.48;;;17.40;99.90;;;;;;5097493;28;20281;-81
2022/05/10 07:13:34;;;;;;;16.73;15.05;;;17.50;99.90;;;;;;5096030;28;20200;-82
2022/05/10 07:16:02;;;;;;;15.40;13.80;;;17.60;99.90;;;;;;5093290;28;20199;-81
2022/05/10 07:18:30;;;;;;;16.05;14.07;;;17.80;99.90;;;;;;5093516;28;20652;-81
2022/05/10 07:20:57;;;;;;;16.02;13.43;;;18.00;99.90;;;;;;5093553;28;20200;-81
2022/05/10 07:23:27;;;;;;;14.57;13.27;;;18.30;99.90;;;;;;5093068;28;20203;-81
2022/05/10 07:25:55;;;;;;;13.98;12.52;;;18.60;99.90;;;;;;5093428;28;20196;-81
2022/05/10 07:28:22;;;;;;;14.02;12.65;;;18.90;99.90;;;;;;5093122;28;20192;-81
2022/05/10 07:30:48;;;;;;;13.80;12.45;;;19.20;99.90;;;;;;5093071;28;20245;-81
2022/05/10 07:33:18;;;;;;;13.05;11.75;;;19.40;99.90;;;;;;5093082;28;20196;-81
2022/05/10 07:38:30;;;;;;;12.52;10.32;;;19.80;99.90;;;;;;5093851;28;20198;-81
2022/05/10 07:40:58;;;;;;;9.63;8.60;;;20.00;99.90;;;;;;5093633;28;20196;-82
2022/05/10 07:43:25;;;;;;;9.25;8.38;;;20.10;99.90;;;;;;5093250;28;20253;-80
2022/05/10 07:45:54;;;;;;;11.05;7.90;;;20.10;99.90;;;;;;5093814;28;20277;-82
2022/05/10 07:48:21;;;;;;;9.02;8.00;;;20.00;99.90;;;;;;5093495;28;20706;-81
2022/05/10 07:50:50;;;;;;;10.35;8.35;;;20.10;99.90;;;;;;5092630;28;20307;-81
2022/05/10 07:53:17;;;;;;;9.20;7.85;;;20.10;99.90;;;;;;5093106;28;20192;-81
2022/05/10 07:55:45;;;;;;;8.50;7.80;;;20.30;99.90;;;;;;5093270;28;20249;-81
2022/05/10 07:58:12;;;;;;;10.38;8.18;;;20.30;99.90;;;;;;5096195;28;20220;-81
2022/05/10 08:00:41;;;;;;;8.73;8.02;;;20.50;99.90;;;;;;5097543;28;20273;-81
2022/05/10 08:03:10;;;;;;;9.05;8.15;;;20.60;99.90;;;;;;5101104;28;20200;-81
2022/05/10 08:05:36;;;;;;;9.30;8.52;;;20.70;99.90;;;;;;5114495;28;20200;-80
2022/05/10 08:08:05;;;;;;;10.52;9.45;;;20.90;99.90;;;;;;5111838;28;20223;-81
2022/05/10 08:10:33;;;;;;;9.90;8.93;;;20.90;99.90;;;;;;5114399;28;20226;-81
2022/05/10 08:12:59;;;;;;;10.65;9.40;;;21.30;99.90;;;;;;5112922;28;20286;-81
2022/05/10 08:15:26;;;;;;;10.27;9.30;;;21.20;99.90;;;;;;5114852;28;20211;-80
2022/05/10 08:17:53;;;;;;;10.65;9.75;;;21.20;99.90;;;;;;5102262;28;20192;-80
2022/05/10 08:20:20;;;;;;;9.63;8.80;;;21.10;99.90;;;;;;5096211;28;20196;-81
2022/05/10 08:22:47;;;;;;;11.80;9.68;;;20.90;99.90;;;;;;5096386;28;20253;-81
2022/05/10 08:25:15;;;;;;;9.18;8.27;;;21.10;99.90;;;;;;5095963;28;20192;-81
2022/05/10 08:27:42;;;;;;;11.90;8.68;;;21.40;99.90;;;;;;5095946;28;20299;-81
2022/05/10 08:30:10;;;;;;;9.25;8.45;;;21.30;95.50;;;;;;5095617;28;20283;-80
2022/05/10 08:32:36;;;;;;;12.52;9.80;;;21.50;97.30;;;;;;5096192;28;20192;-81
2022/05/10 08:35:04;;;;;;;10.77;9.63;;;22.00;98.20;;;;;;5095929;28;20219;-81
2022/05/10 08:37:30;;;;;;;10.80;9.85;;;22.30;98.50;;;;;;5095805;28;20196;-81
2022/05/10 08:39:59;;;;;;;10.05;8.98;;;22.50;97.00;;;;;;5095883;28;20246;-81
2022/05/10 08:42:30;;;;;;;9.65;8.82;;;22.60;94.00;;;;;;5095573;28;20236;-81
2022/05/10 08:45:01;;;;;;;10.60;9.18;;;22.90;92.30;;;;;;5095991;28;20196;-81
2022/05/10 08:47:29;;;;;;;9.20;8.40;;;22.90;91.10;;;;;;5095879;28;20200;-81
2022/05/10 08:50:00;;;;;;;9.15;8.30;;;23.10;91.00;;;;;;5095548;28;20593;-81
2022/05/10 08:52:30;;;;;;;10.18;8.88;;;23.20;88.90;;;;;;5095369;28;20274;-81
2022/05/10 08:54:58;;;;;;;9.70;8.80;;;23.20;89.30;;;;;;5095249;28;20239;-81
2022/05/10 08:57:39;;;;;;;10.50;9.57;;;23.00;84.10;;;;;;5095378;28;20219;-81
2022/05/10 09:00:11;;;;;;;9.77;8.80;;;22.80;85.50;;;;;;5095413;28;20651;-81
2022/05/10 09:02:41;;;;;;;11.23;9.73;;;22.90;85.60;;;;;;5095384;28;20287;-80
2022/05/10 09:05:14;;;;;;;9.55;8.60;;;23.10;83.70;;;;;;5095045;28;20192;-80
2022/05/10 09:07:50;;;;;;;9.40;8.43;;;23.30;80.60;;;;;;5094898;28;20275;-81
2022/05/10 09:10:21;;;;;;;10.32;9.23;;;23.20;75.30;;;;;;5094908;28;20215;-80
2022/05/10 09:13:04;;;;;;;9.50;8.55;;;23.00;78.30;;;;;;5095129;28;20223;-80
2022/05/10 09:15:36;;;;;;;11.35;8.32;;;23.30;76.70;;;;;;5095015;28;20660;-81
2022/05/10 09:18:08;;;;;;;8.73;7.93;;;23.50;74.10;;;;;;5095056;28;20254;-81
2022/05/10 09:20:40;;;;;;;8.32;7.63;;;23.30;67.40;;;;;;5095082;28;20201;-80
2022/05/10 09:23:21;;;;;;;8.00;7.30;;;23.70;65.90;;;;;;5095223;28;20282;-81
2022/05/10 09:25:49;;;;;;;8.77;8.07;;;23.80;63.00;;;;;;5095432;28;20200;-81
2022/05/10 09:28:28;;;;;;;9.10;7.07;;;24.20;61.30;;;;;;5095106;28;20204;-81
2022/05/10 09:36:26;;;;;;;10.48;7.85;;;24.80;59.60;;;;;;5094875;28;20200;-81
2022/05/10 09:39:00;;;;;;;7.63;6.97;;;25.30;53.50;;;;;;5094620;28;20200;-82
2022/05/10 09:41:32;;;;;;;9.68;7.03;;;25.00;53.10;;;;;;5094716;28;20202;-80
2022/05/10 09:44:20;;;;;;;7.53;6.93;;;25.00;50.10;;;;;;5094488;28;20304;-80
2022/05/10 09:46:47;;;;;;;7.35;6.65;;;25.20;51.00;;;;;;5094423;28;20206;-80
2022/05/10 09:49:34;;;;;;;7.93;6.28;;;25.90;45.30;;;;;;5094132;28;20533;-80
2022/05/10 09:52:01;;;;;;;8.13;7.40;;;25.90;42.50;;;;;;5094169;28;20231;-81
2022/05/10 09:54:36;;;;;;;7.40;6.80;;;26.10;44.50;;;;;;5094259;28;20200;-80
2022/05/10 09:57:03;;;;;;;9.63;6.13;;;25.90;43.80;;;;;;5094311;28;20199;-81
2022/05/10 09:59:39;;;;;;;15.32;7.57;;;26.80;41.00;;;;;;5094232;28;20196;-80
2022/05/10 10:02:06;;;;;;;9.43;6.50;;;26.40;42.00;;;;;;5094032;28;20655;-80
2022/05/10 10:04:36;;;;;;;8.38;6.72;;;26.50;41.30;;;;;;5094275;28;20200;-79
2022/05/10 10:07:09;;;;;;;7.43;6.45;;;26.60;42.00;;;;;;5094186;28;20243;-80
2022/05/10 10:09:38;;;;;;;6.05;5.45;;;27.80;38.80;;;;;;5105179;28;20208;-80
2022/05/10 10:12:06;;;;;;;7.25;6.40;;;27.80;36.60;;;;;;5117989;28;20212;-80
2022/05/10 10:14:40;;;;;;;6.32;5.47;;;27.80;33.70;;;;;;5117723;28;20226;-80
2022/05/10 10:17:18;;;;;;;5.85;5.35;;;27.80;33.10;;;;;;5115619;28;20227;-80
2022/05/10 10:19:49;;;;;;;6.60;6.00;;;27.90;32.80;;;;;;5113733;28;20196;-81
2022/05/10 10:22:18;;;;;;;5.93;5.43;;;28.10;32.70;;;;;;5110832;28;20269;-79
2022/05/10 10:24:50;;;;;;;7.07;6.47;;;28.20;32.70;;;;;;5109600;28;20202;-80
2022/05/10 10:27:22;;;;;;;7.13;6.50;;;27.50;35.00;;;;;;5094279;28;20192;-80
2022/05/10 10:29:56;;;;;;;6.90;6.30;;;26.70;35.20;;;;;;5093881;28;20200;-79
2022/05/10 10:32:28;;;;;;;7.32;6.40;;;26.40;36.10;;;;;;5093619;28;20261;-80
2022/05/10 10:35:02;;;;;;;6.80;6.15;;;25.70;35.10;;;;;;5098138;28;20196;-79
2022/05/10 10:37:35;;;;;;;8.90;6.10;;;25.30;36.40;;;;;;5096638;28;20202;-79
2022/05/10 10:40:12;;;;;;;6.45;5.93;;;26.40;34.60;;;;;;5108402;28;20218;-80
2022/05/10 10:42:49;;;;;;;6.38;5.78;;;26.30;33.10;;;;;;5104142;28;20196;-80
2022/05/10 10:45:18;;;;;;;6.28;5.72;;;26.90;33.10;;;;;;5109890;28;20196;-80
2022/05/10 10:47:56;;;;;;;7.75;5.63;;;27.00;32.40;;;;;;5107313;28;20219;-80
2022/05/10 10:50:26;;;;;;;7.53;5.93;;;27.50;31.60;;;;;;5106833;28;20489;-80
2022/05/10 10:52:54;;;;;;;11.27;6.18;;;27.10;32.90;;;;;;5110789;28;20243;-80
2022/05/10 10:55:22;;;;;;;6.05;5.60;;;27.20;31.80;;;;;;5105203;28;20249;-81
2022/05/10 10:58:03;;;;;;;6.38;5.88;;;28.00;30.10;;;;;;5093443;28;20245;-81
2022/05/10 11:00:37;;;;;;;6.05;5.55;;;28.70;30.80;;;;;;5093473;28;20291;-80
2022/05/10 11:03:15;;;;;;;6.05;5.45;;;30.20;27.30;;;;;;5093624;28;20199;-81
2022/05/10 11:06:23;;;;;;;5.70;5.13;;;30.20;25.80;;;;;;5093115;28;20245;-81
2022/05/10 11:09:06;;;;;;;6.03;4.75;;;30.90;26.10;;;;;;5095830;28;20215;-79
2022/05/10 11:11:42;;;;;;;7.85;5.00;;;32.00;23.40;;;;;;5093226;28;20227;-80
2022/05/10 11:14:23;;;;;;;8.18;5.43;;;31.10;23.90;;;;;;5093089;28;20199;-80
2022/05/10 11:17:12;;;;;;;5.63;4.80;;;31.50;23.10;;;;;;5092988;28;20199;-79
2022/05/10 11:20:01;;;;;;;5.03;4.63;;;32.00;22.10;;;;;;5092915;28;20319;-82
2022/05/10 11:22:38;;;;;;;8.02;4.88;;;32.50;21.50;;;;;;5092968;28;20614;-80
2022/05/10 11:25:17;;;;;;;6.85;4.88;;;33.70;19.90;;;;;;5092808;28;20386;-79
2022/05/10 11:28:12;;;;;;;7.55;4.53;;;33.40;18.90;;;;;;5093032;28;20257;-80
2022/05/10 11:30:50;;;;;;;6.95;4.90;;;33.30;19.40;;;;;;5092793;28;20199;-80
2022/05/10 11:33:30;;;;;;;4.68;4.28;;;31.50;20.10;;;;;;5096238;28;20231;-82
2022/05/10 11:36:07;;;;;;;4.72;4.32;;;33.00;19.00;;;;;;5096891;28;20264;-80
2022/05/10 11:38:54;;;;;;;4.75;4.38;;;33.80;18.30;;;;;;5096805;28;20256;-79
2022/05/10 11:41:31;;;;;;;4.50;4.10;;;32.90;16.30;;;;;;5096854;28;20196;-81
2022/05/10 11:44:26;;;;;;;4.63;4.22;;;32.70;15.60;;;;;;5096510;28;20589;-80
2022/05/10 11:47:23;;;;;;;5.05;4.65;;;32.30;17.60;;;;;;5078521;28;20675;-79
2022/05/10 11:50:26;;;;;;;4.55;4.20;;;32.30;16.10;;;;;;5096516;28;20595;-81
2022/05/10 11:53:15;;;;;;;4.18;3.88;;;32.70;15.10;;;;;;5096572;28;20231;-80
2022/05/10 11:55:51;;;;;;;4.30;3.90;;;33.40;15.00;;;;;;5096396;28;20200;-80
2022/05/10 11:58:19;;;;;;;4.70;4.13;;;32.80;15.10;;;;;;5096401;28;20203;-79
2022/05/10 12:00:51;;;;;;;6.38;4.03;;;33.00;14.90;;;;;;5096537;28;20250;-79
2022/05/10 12:03:50;;;;;;;4.78;4.38;;;33.80;14.60;;;;;;5096522;28;20259;-80
2022/05/10 12:06:38;;;;;;;4.53;4.10;;;32.80;14.50;;;;;;5096111;28;20199;-81
2022/05/10 12:09:06;;;;;;;5.32;4.72;;;35.20;14.50;;;;;;5096334;28;20295;-80
2022/05/10 12:11:38;;;;;;;6.25;4.00;;;33.50;14.50;;;;;;5096234;28;20239;-80
2022/05/10 12:22:59;;;;;;;4.90;4.50;;;30.60;16.90;;;;;;5095952;28;20202;-79
2022/05/10 12:25:57;;;;;;;5.63;4.70;;;31.80;16.90;;;;;;5096135;28;20200;-78
2022/05/10 12:28:45;;;;;;;7.40;4.80;;;32.60;16.70;;;;;;5095899;28;20199;-80
2022/05/10 12:31:50;;;;;;;6.82;4.25;;;32.30;15.90;;;;;;5095881;28;20605;-80
2022/05/10 12:34:44;;;;;;;5.07;4.63;;;32.30;16.60;;;;;;5093124;28;20206;-79
2022/05/10 12:37:41;;;;;;;5.10;4.60;;;30.60;17.40;;;;;;5095629;28;20613;-81
2022/05/10 12:40:31;;;;;;;4.57;4.28;;;31.90;17.20;;;;;;5095835;28;20203;-81
2022/05/10 12:43:43;;;;;;;6.95;4.93;;;31.40;17.20;;;;;;5095342;28;20590;-80
2022/05/10 12:46:22;;;;;;;6.05;4.80;;;30.20;17.90;;;;;;5032899;28;20198;-80
2022/05/10 12:49:03;;;;;;;7.28;4.82;;;28.00;19.90;;;;;;5033241;28;20194;-80
2022/05/10 12:51:42;;;;;;;5.40;4.90;;;28.60;20.90;;;;;;5076905;28;20228;-81
2022/05/10 12:54:14;;;;;;;4.90;4.50;;;29.50;19.30;;;;;;5095541;28;20207;-79
2022/05/10 12:57:00;;;;;;;5.03;4.63;;;32.60;17.00;;;;;;5095604;28;20196;-80
2022/05/10 12:59:32;;;;;;;4.70;4.30;;;34.70;15.00;;;;;;5095623;28;20199;-80
2022/05/10 13:02:00;;;;;;;8.05;4.50;;;35.10;14.40;;;;;;5095919;28;20200;-80
2022/05/10 13:04:32;;;;;;;4.60;4.20;;;34.30;15.40;;;;;;5095566;28;20200;-80
2022/05/10 13:07:04;;;;;;;4.70;4.30;;;33.00;14.30;;;;;;5095583;28;20192;-80
2022/05/10 13:09:34;;;;;;;5.10;4.60;;;32.70;14.90;;;;;;5095449;28;20200;-80
2022/05/10 13:12:08;;;;;;;5.90;4.68;;;33.30;15.90;;;;;;5095374;28;20228;-78
2022/05/10 13:14:38;;;;;;;5.72;4.32;;;33.90;15.20;;;;;;5095614;28;20194;-80
2022/05/10 13:17:05;;;;;;;4.70;4.30;;;33.20;15.30;;;;;;5077638;28;20287;-80
2022/05/10 13:19:38;;;;;;;5.15;4.60;;;33.60;15.40;;;;;;5095590;28;20223;-80
2022/05/10 13:22:08;;;;;;;5.15;4.75;;;32.70;15.60;;;;;;5095855;28;20210;-79
2022/05/10 13:24:35;;;;;;;5.85;5.35;;;32.70;16.00;;;;;;5095747;28;20207;-80